SBOSBO PUY / LDPL
Speedbird OnlineSpeedbird Online PUY / LDPL

Pula Airport
10:25 18°C

Location Pula, Croatia
Latitude: 44.89350128173828
Longitude: 13.922200202941895
Web Wikipedia
Altitude 84 Meter / 274 Feet
Distance 1,257 KM / 781 Miles
from London.
Time Zone UTC +2 hours (Europe/Zagreb)
Codes IATA: PUY
ICAO: LDPL
Currency £1 equals HRK 8.62
Runways
RunwayLength (m)Surface
092950Asphalt
272950Asphalt
Radio
TypeDescriptionFrequency
APPAPP118.4
TWRTWR120
Live ATC
METAR LDPL 060800Z VRB01KT CAVOK 18/14 Q1028 NOSIG
TAF TAF LDPL 060525Z 0606/0706 30005KT CAVOK TX22/0613Z TN13/0702Z PROB40 0612/0616 27008KT BECMG 0620/0622 06008KT
Weather As Of 06 Oct 2022 10:25
Description Clear sky
Wind 2 km/h from North (0°)
Cloud Cover 0%
Precipitation Rain: none, Snow: none
Sunrise 07:07
Sunset 18:36
Lounges Pula Airport Business lounge, Main terminal
Rotations During the last 90 days there were
25 flights from LHR
25 flights to LHR


© 2017-2022 Speedbird Online